createdAt,value
2022-12-28T00:01:46.530Z,6.57
2022-12-28T00:04:14.392Z,6.97
2022-12-28T00:06:42.235Z,6.67
2022-12-28T00:09:10.602Z,6.84
2022-12-28T00:11:37.094Z,6.90
2022-12-28T00:14:04.088Z,6.67
2022-12-28T00:16:35.926Z,6.80
2022-12-28T00:19:05.460Z,6.54
2022-12-28T00:21:34.467Z,6.97
2022-12-28T00:24:09.238Z,6.93
2022-12-28T00:26:36.436Z,6.81
2022-12-28T00:29:05.752Z,6.63
2022-12-28T00:31:34.380Z,6.96
2022-12-28T00:34:02.324Z,6.71
2022-12-28T00:37:09.427Z,6.79
2022-12-28T00:39:15.287Z,6.88
2022-12-28T00:41:41.764Z,6.60
2022-12-28T00:44:08.267Z,6.69
2022-12-28T00:46:35.088Z,6.84
2022-12-28T00:49:01.556Z,6.97
2022-12-28T00:51:28.074Z,7.07
2022-12-28T00:53:54.703Z,6.79
2022-12-28T00:56:22.454Z,6.73
2022-12-28T00:58:49.257Z,6.67
2022-12-28T01:01:21.471Z,7.08
2022-12-28T01:03:48.353Z,6.68
2022-12-28T01:06:16.744Z,6.85
2022-12-28T01:08:43.638Z,6.94
2022-12-28T01:11:18.816Z,6.90
2022-12-28T01:13:53.958Z,6.62
2022-12-28T01:16:26.206Z,7.11
2022-12-28T01:18:54.815Z,6.69
2022-12-28T01:21:26.027Z,6.78
2022-12-28T01:23:57.903Z,6.89
2022-12-28T01:26:25.495Z,6.73
2022-12-28T01:28:52.011Z,6.84
2022-12-28T01:31:20.186Z,6.80
2022-12-28T01:33:47.610Z,6.82
2022-12-28T01:36:15.803Z,7.14
2022-12-28T01:38:42.997Z,6.86
2022-12-28T01:41:10.891Z,6.87
2022-12-28T01:43:52.786Z,7.04
2022-12-28T01:46:25.352Z,6.70
2022-12-28T01:49:00.034Z,6.92
2022-12-28T01:51:29.461Z,6.65
2022-12-28T01:53:56.662Z,6.91
2022-12-28T01:56:23.312Z,6.86
2022-12-28T01:58:50.089Z,6.92
2022-12-28T02:01:17.570Z,7.13
2022-12-28T02:03:44.225Z,6.91
2022-12-28T02:06:11.880Z,6.31
2022-12-28T02:08:56.605Z,6.82
2022-12-28T02:11:23.398Z,6.65
2022-12-28T02:13:52.001Z,6.83
2022-12-28T02:16:19.268Z,6.32
2022-12-28T02:18:46.554Z,6.29
2022-12-28T02:21:25.562Z,6.45
2022-12-28T02:24:10.856Z,6.36
2022-12-28T02:26:49.580Z,6.55
2022-12-28T02:29:23.099Z,6.34
2022-12-28T02:32:11.389Z,6.28
2022-12-28T02:34:48.489Z,6.22
2022-12-28T02:37:52.279Z,6.36
2022-12-28T02:40:22.687Z,6.13
2022-12-28T02:42:49.793Z,6.26
2022-12-28T02:46:02.143Z,6.09
2022-12-28T02:48:57.539Z,6.09
2022-12-28T02:51:39.505Z,6.35
2022-12-28T02:54:43.520Z,6.25
2022-12-28T02:57:16.095Z,6.30
2022-12-28T02:59:56.272Z,6.23
2022-12-28T03:02:41.556Z,6.08
2022-12-28T03:05:15.297Z,6.03
2022-12-28T03:08:20.127Z,6.30
2022-12-28T03:10:53.027Z,6.09
2022-12-28T03:13:43.184Z,6.34
2022-12-28T03:16:20.670Z,5.93
2022-12-28T03:19:10.521Z,6.15
2022-12-28T03:21:56.194Z,6.27
2022-12-28T03:24:41.773Z,5.75
2022-12-28T03:27:29.890Z,5.98
2022-12-28T03:30:20.535Z,6.01
2022-12-28T03:32:47.804Z,6.28
2022-12-28T03:35:17.157Z,6.13
2022-12-28T03:38:15.367Z,5.76
2022-12-28T03:40:49.879Z,5.98
2022-12-28T03:43:43.175Z,6.26
2022-12-28T03:46:21.389Z,6.14
2022-12-28T03:48:48.978Z,5.68
2022-12-28T03:51:24.567Z,5.75
2022-12-28T03:53:51.483Z,5.61
2022-12-28T03:56:21.058Z,5.67
2022-12-28T03:58:48.042Z,5.73
2022-12-28T04:01:15.652Z,5.66
2022-12-28T04:03:42.538Z,6.01
2022-12-28T04:06:13.133Z,5.73
2022-12-28T04:08:39.811Z,6.25
2022-12-28T04:11:06.285Z,5.88
2022-12-28T04:13:32.998Z,5.70
2022-12-28T04:16:03.050Z,6.07
2022-12-28T04:18:31.777Z,6.07
2022-12-28T04:20:58.312Z,5.84
2022-12-28T04:23:24.973Z,6.12
2022-12-28T04:26:02.138Z,6.17
2022-12-28T04:28:29.188Z,6.14
2022-12-28T04:30:56.680Z,6.10
2022-12-28T04:33:24.167Z,5.86
2022-12-28T04:35:51.499Z,5.98
2022-12-28T04:38:18.534Z,6.30
2022-12-28T04:40:45.322Z,6.24
2022-12-28T04:43:11.827Z,6.35
2022-12-28T04:45:38.434Z,5.93
2022-12-28T04:48:05.325Z,6.27
2022-12-28T04:50:31.829Z,6.11
2022-12-28T04:52:58.821Z,6.11
2022-12-28T04:55:32.645Z,5.69
2022-12-28T04:58:03.764Z,5.69
2022-12-28T05:00:30.741Z,6.14
2022-12-28T05:03:00.834Z,5.93
2022-12-28T05:05:28.682Z,6.16
2022-12-28T05:07:55.993Z,6.27
2022-12-28T05:10:22.528Z,6.04
2022-12-28T05:12:48.974Z,6.00
2022-12-28T05:15:15.568Z,6.16
2022-12-28T05:17:42.039Z,6.21
2022-12-28T05:20:09.052Z,5.94
2022-12-28T05:22:40.742Z,6.37
2022-12-28T05:25:07.910Z,6.27
2022-12-28T05:27:34.342Z,6.06
2022-12-28T05:30:00.829Z,5.84
2022-12-28T05:32:27.254Z,6.10
2022-12-28T05:34:53.730Z,6.38
2022-12-28T05:37:22.340Z,6.29
2022-12-28T05:39:48.956Z,6.39
2022-12-28T05:42:15.408Z,6.08
2022-12-28T05:44:42.044Z,6.11
2022-12-28T05:47:08.527Z,6.02
2022-12-28T05:49:35.076Z,6.46
2022-12-28T05:52:01.724Z,6.39
2022-12-28T05:54:28.197Z,6.07
2022-12-28T05:56:54.696Z,6.20
2022-12-28T05:59:21.946Z,6.22
2022-12-28T06:01:48.626Z,6.36
2022-12-28T06:04:17.595Z,6.48
2022-12-28T06:06:44.756Z,6.42
2022-12-28T06:09:11.333Z,6.15
2022-12-28T06:11:37.845Z,6.34
2022-12-28T06:14:05.939Z,6.37
2022-12-28T06:16:35.695Z,6.49
2022-12-28T06:19:10.393Z,6.59
2022-12-28T06:21:39.066Z,6.28
2022-12-28T06:24:06.487Z,6.47
2022-12-28T06:26:35.120Z,6.51
2022-12-28T06:29:03.983Z,6.72
2022-12-28T06:31:36.192Z,6.46
2022-12-28T06:34:04.616Z,6.47
2022-12-28T06:36:39.567Z,6.40
2022-12-28T06:39:08.376Z,6.67
2022-12-28T06:41:35.258Z,6.41
2022-12-28T06:44:01.994Z,6.55
2022-12-28T06:46:30.546Z,6.76
2022-12-28T06:48:57.689Z,6.91
2022-12-28T06:51:27.412Z,6.68
2022-12-28T06:53:54.777Z,6.89
2022-12-28T06:56:23.852Z,6.55
2022-12-28T06:58:53.487Z,7.04
2022-12-28T07:01:26.585Z,7.10
2022-12-28T07:03:55.423Z,6.63
2022-12-28T07:06:24.468Z,6.71
2022-12-28T07:08:51.359Z,7.04
2022-12-28T07:11:22.130Z,6.82
2022-12-28T07:13:49.008Z,6.92
2022-12-28T07:16:25.725Z,6.97
2022-12-28T07:18:52.566Z,7.04
2022-12-28T07:21:25.837Z,6.78
2022-12-28T07:23:53.742Z,7.00
2022-12-28T07:26:22.257Z,6.90
2022-12-28T07:28:50.781Z,7.25
2022-12-28T07:31:28.322Z,7.12
2022-12-28T07:33:55.976Z,7.33
2022-12-28T07:36:23.947Z,7.00
2022-12-28T07:38:50.420Z,7.17
2022-12-28T07:41:19.583Z,7.19
2022-12-28T07:43:46.215Z,7.10
2022-12-28T07:46:24.354Z,6.98
2022-12-28T07:48:51.607Z,7.04
2022-12-28T07:51:35.484Z,7.28
2022-12-28T07:54:02.608Z,7.31
2022-12-28T07:56:29.995Z,7.46
2022-12-28T07:58:59.037Z,7.02
2022-12-28T08:01:28.348Z,7.24
2022-12-28T08:03:59.879Z,7.12
2022-12-28T08:06:27.896Z,6.84
2022-12-28T08:08:56.511Z,7.27
2022-12-28T08:11:24.830Z,7.39
2022-12-28T08:13:52.994Z,7.48
2022-12-28T08:16:20.731Z,7.31
2022-12-28T08:18:48.144Z,7.33
2022-12-28T08:21:15.918Z,7.06
2022-12-28T08:23:42.478Z,7.26
2022-12-28T08:26:23.707Z,7.56
2022-12-28T08:28:52.453Z,7.87
2022-12-28T08:31:24.180Z,7.47
2022-12-28T08:33:51.283Z,7.49
2022-12-28T08:36:17.767Z,7.67
2022-12-28T08:38:45.459Z,7.52
2022-12-28T08:41:19.433Z,7.77
2022-12-28T08:43:46.339Z,7.54
2022-12-28T08:46:16.575Z,7.64
2022-12-28T08:48:43.563Z,7.53
2022-12-28T08:51:12.361Z,7.59
2022-12-28T08:53:39.361Z,7.62
2022-12-28T08:56:23.595Z,7.94
2022-12-28T08:58:50.256Z,8.15
2022-12-28T09:01:19.385Z,8.26
2022-12-28T09:03:48.127Z,8.13
2022-12-28T09:06:17.195Z,8.22
2022-12-28T09:08:56.761Z,7.95
2022-12-28T09:11:29.638Z,8.29
2022-12-28T09:13:56.217Z,8.02
2022-12-28T09:16:25.630Z,7.85
2022-12-28T09:18:57.922Z,8.12
2022-12-28T09:21:27.037Z,8.41
2022-12-28T09:23:54.533Z,7.92
2022-12-28T09:26:25.563Z,8.42
2022-12-28T09:28:56.906Z,8.02
2022-12-28T09:31:25.566Z,8.18
2022-12-28T09:36:50.940Z,8.19
2022-12-28T09:39:19.659Z,8.38
2022-12-28T09:41:56.319Z,8.37
2022-12-28T09:44:35.380Z,8.62
2022-12-28T09:47:20.344Z,8.25
2022-12-28T09:50:00.335Z,8.69
2022-12-28T09:52:33.265Z,9.06
2022-12-28T09:55:15.075Z,9.31
2022-12-28T09:57:47.895Z,8.34
2022-12-28T10:00:42.804Z,8.88
2022-12-28T10:03:18.565Z,9.07
2022-12-28T10:05:45.537Z,8.87
2022-12-28T10:08:15.875Z,8.81
2022-12-28T10:10:48.369Z,9.08
2022-12-28T10:13:53.525Z,8.72
2022-12-28T10:16:19.897Z,8.70
2022-12-28T10:18:47.864Z,9.34
2022-12-28T10:21:16.339Z,8.94
2022-12-28T10:24:12.120Z,9.15
2022-12-28T10:26:30.183Z,9.09
2022-12-28T10:29:00.651Z,9.38
2022-12-28T10:31:59.225Z,9.60
2022-12-28T10:34:25.938Z,9.60
2022-12-28T10:36:53.199Z,9.39
2022-12-28T10:39:28.483Z,9.45
2022-12-28T10:41:56.232Z,9.34
2022-12-28T10:47:28.002Z,9.48
2022-12-28T10:52:41.275Z,9.62
2022-12-28T10:55:29.975Z,9.68
2022-12-28T10:58:27.875Z,9.35
2022-12-28T11:00:47.122Z,10.01
2022-12-28T11:03:19.176Z,9.82
2022-12-28T11:03:21.121Z,9.82
2022-12-28T11:05:45.736Z,9.61
2022-12-28T11:08:14.600Z,10.28
2022-12-28T11:10:41.279Z,10.15
2022-12-28T11:13:22.010Z,10.13
2022-12-28T11:15:48.968Z,10.08
2022-12-28T11:18:17.052Z,10.24
2022-12-28T11:20:46.571Z,10.25
2022-12-28T11:23:22.236Z,9.81
2022-12-28T11:25:55.176Z,9.83
2022-12-28T11:28:22.931Z,10.18
2022-12-28T11:30:51.154Z,10.26
2022-12-28T11:33:46.042Z,9.82
2022-12-28T11:36:24.713Z,10.35
2022-12-28T11:38:53.225Z,10.00
2022-12-28T11:41:31.967Z,10.46
2022-12-28T11:44:02.822Z,10.09
2022-12-28T11:46:35.611Z,10.53
2022-12-28T11:49:24.984Z,10.29
2022-12-28T11:52:17.256Z,10.44
2022-12-28T11:55:21.929Z,10.50
2022-12-28T11:57:48.397Z,10.78
2022-12-28T12:00:22.696Z,10.63
2022-12-28T12:02:58.129Z,10.69
2022-12-28T12:05:37.166Z,10.22
2022-12-28T12:08:14.226Z,10.65
2022-12-28T12:10:49.200Z,10.81
2022-12-28T12:13:27.947Z,10.96
2022-12-28T12:15:57.993Z,10.59
2022-12-28T12:18:26.504Z,11.17
2022-12-28T12:21:03.074Z,11.22
2022-12-28T12:23:39.464Z,10.99
2022-12-28T12:26:29.573Z,10.64
2022-12-28T12:28:59.964Z,10.67
2022-12-28T12:31:50.355Z,11.11
2022-12-28T12:34:28.304Z,10.68
2022-12-28T12:37:28.914Z,10.22
2022-12-28T12:40:05.575Z,10.63
2022-12-28T12:43:09.247Z,10.78
2022-12-28T12:46:07.894Z,10.48
2022-12-28T12:48:59.077Z,10.77
2022-12-28T12:52:03.227Z,10.61
2022-12-28T12:54:41.052Z,10.37
2022-12-28T12:57:15.236Z,10.63
2022-12-28T13:00:00.575Z,10.62
2022-12-28T13:02:30.202Z,10.63
2022-12-28T13:04:56.977Z,10.75
2022-12-28T13:07:26.243Z,10.88
2022-12-28T13:09:54.935Z,10.59
2022-12-28T13:12:21.848Z,10.64
2022-12-28T13:14:57.384Z,10.82
2022-12-28T13:17:24.321Z,10.51
2022-12-28T13:19:50.851Z,10.82
2022-12-28T13:22:29.948Z,10.81
2022-12-28T13:24:56.676Z,10.78
2022-12-28T13:27:23.557Z,10.94
2022-12-28T13:29:54.602Z,10.71
2022-12-28T13:32:32.738Z,10.69
2022-12-28T13:35:02.871Z,10.78
2022-12-28T13:37:29.577Z,10.62
2022-12-28T13:40:15.561Z,10.57
2022-12-28T13:42:49.299Z,10.88
2022-12-28T13:45:16.689Z,10.49
2022-12-28T13:47:47.327Z,11.01
2022-12-28T13:50:17.597Z,10.69
2022-12-28T13:53:07.189Z,10.57
2022-12-28T13:55:40.563Z,11.04
2022-12-28T13:58:19.537Z,10.49
2022-12-28T14:00:47.589Z,10.97
2022-12-28T14:03:15.180Z,10.37
2022-12-28T14:05:47.499Z,10.94
2022-12-28T14:08:14.618Z,11.08
2022-12-28T14:10:41.937Z,11.01
2022-12-28T14:13:09.850Z,10.60
2022-12-28T14:15:41.037Z,10.60
2022-12-28T14:18:08.502Z,10.22
2022-12-28T14:20:52.932Z,10.56
2022-12-28T14:23:45.880Z,10.41
2022-12-28T14:26:21.003Z,10.41
2022-12-28T14:28:50.393Z,10.97
2022-12-28T14:31:22.120Z,10.48
2022-12-28T14:34:17.493Z,11.00
2022-12-28T14:36:51.020Z,10.83
2022-12-28T14:39:28.871Z,10.53
2022-12-28T14:41:55.479Z,10.47
2022-12-28T14:44:27.784Z,10.64
2022-12-28T14:46:54.907Z,10.63
2022-12-28T14:49:30.694Z,10.52
2022-12-28T14:52:09.461Z,10.96
2022-12-28T14:54:46.463Z,10.64
2022-12-28T14:57:43.673Z,10.63
2022-12-28T15:00:16.447Z,10.96
2022-12-28T15:02:43.330Z,10.78
2022-12-28T15:06:04.426Z,10.47
2022-12-28T15:08:30.909Z,10.58
2022-12-28T15:10:58.929Z,10.63
2022-12-28T15:13:26.795Z,10.67
2022-12-28T15:16:01.509Z,10.39
2022-12-28T15:18:29.340Z,10.67
2022-12-28T15:20:56.837Z,10.71
2022-12-28T15:23:23.690Z,10.54
2022-12-28T15:25:51.258Z,10.45
2022-12-28T15:28:20.832Z,10.54
2022-12-28T15:30:47.340Z,10.40
2022-12-28T15:33:13.792Z,10.27
2022-12-28T15:35:40.327Z,10.31
2022-12-28T15:38:06.799Z,10.28
2022-12-28T15:40:33.394Z,10.36
2022-12-28T15:42:59.868Z,10.22
2022-12-28T15:45:26.649Z,10.29
2022-12-28T15:47:54.413Z,10.44
2022-12-28T15:50:21.372Z,10.58
2022-12-28T15:52:49.941Z,10.28
2022-12-28T15:55:17.706Z,10.37
2022-12-28T15:57:49.342Z,10.55
2022-12-28T16:00:18.986Z,10.25
2022-12-28T16:02:46.389Z,10.09
2022-12-28T16:05:13.411Z,10.15
2022-12-28T16:07:39.918Z,9.96
2022-12-28T16:10:06.998Z,10.32
2022-12-28T16:12:33.589Z,10.09
2022-12-28T16:15:00.086Z,10.39
2022-12-28T16:17:26.592Z,10.28
2022-12-28T16:19:53.050Z,10.25
2022-12-28T16:22:19.584Z,9.99
2022-12-28T16:24:46.075Z,10.00
2022-12-28T16:27:12.641Z,10.12
2022-12-28T16:29:39.113Z,9.97
2022-12-28T16:32:05.902Z,10.04
2022-12-28T16:34:32.498Z,10.06
2022-12-28T16:36:59.676Z,9.96
2022-12-28T16:39:29.894Z,10.29
2022-12-28T16:41:58.094Z,10.22
2022-12-28T16:44:27.286Z,10.35
2022-12-28T16:46:59.025Z,9.61
2022-12-28T16:49:26.754Z,9.24
2022-12-28T16:51:53.283Z,9.85
2022-12-28T16:54:21.913Z,9.86
2022-12-28T16:56:49.198Z,10.15
2022-12-28T16:59:18.220Z,9.88
2022-12-28T17:01:45.180Z,10.16
2022-12-28T17:04:12.452Z,9.69
2022-12-28T17:06:40.433Z,9.87
2022-12-28T17:09:07.601Z,9.90
2022-12-28T17:11:34.152Z,10.00
2022-12-28T17:14:02.530Z,9.84
2022-12-28T17:16:29.198Z,9.96
2022-12-28T17:18:56.908Z,9.74
2022-12-28T17:21:23.407Z,9.64
2022-12-28T17:23:49.884Z,9.86
2022-12-28T17:26:16.386Z,10.33
2022-12-28T17:28:42.862Z,9.59
2022-12-28T17:31:14.182Z,10.04
2022-12-28T17:33:48.196Z,9.61
2022-12-28T17:36:15.139Z,10.13
2022-12-28T17:38:42.020Z,9.87
2022-12-28T17:41:15.764Z,9.90
2022-12-28T17:43:49.370Z,10.38
2022-12-28T17:46:16.003Z,9.98
2022-12-28T17:48:42.933Z,10.13
2022-12-28T17:51:11.478Z,10.19
2022-12-28T17:53:39.174Z,10.13
2022-12-28T17:56:08.641Z,10.05
2022-12-28T17:58:35.236Z,9.86
2022-12-28T18:01:01.885Z,9.65
2022-12-28T18:03:33.464Z,9.85
2022-12-28T18:06:00.562Z,9.97
2022-12-28T18:08:27.081Z,9.88
2022-12-28T18:10:53.677Z,10.00
2022-12-28T18:13:20.389Z,10.34
2022-12-28T18:15:47.257Z,10.35
2022-12-28T18:18:15.725Z,10.22
2022-12-28T18:20:42.284Z,10.24
2022-12-28T18:23:10.088Z,10.18
2022-12-28T18:25:37.514Z,10.21
2022-12-28T18:28:04.216Z,9.69
2022-12-28T18:30:30.744Z,9.82
2022-12-28T18:32:57.245Z,9.98
2022-12-28T18:35:26.716Z,9.82
2022-12-28T18:37:53.631Z,9.65
2022-12-28T18:40:20.123Z,9.45
2022-12-28T18:42:46.921Z,9.68
2022-12-28T18:45:13.404Z,9.69
2022-12-28T18:47:39.968Z,9.61
2022-12-28T18:50:07.047Z,9.77
2022-12-28T18:52:36.052Z,9.32
2022-12-28T18:55:03.278Z,9.34
2022-12-28T18:57:29.953Z,9.62
2022-12-28T18:59:56.488Z,9.53
2022-12-28T19:02:23.209Z,9.40
2022-12-28T19:04:52.728Z,9.63
2022-12-28T19:07:19.543Z,9.75
2022-12-28T19:10:12.035Z,9.81
2022-12-28T19:12:40.528Z,9.55
2022-12-28T19:15:07.653Z,9.78
2022-12-28T19:17:34.169Z,9.78
2022-12-28T19:20:00.652Z,9.69
2022-12-28T19:22:27.139Z,9.35
2022-12-28T19:24:53.694Z,9.44
2022-12-28T19:27:20.418Z,9.27
2022-12-28T19:29:47.062Z,9.38
2022-12-28T19:32:13.511Z,9.56
2022-12-28T19:34:40.032Z,9.32
2022-12-28T19:37:06.469Z,9.33
2022-12-28T19:39:32.959Z,9.47
2022-12-28T19:41:59.428Z,9.27
2022-12-28T19:44:25.939Z,9.43
2022-12-28T19:46:54.014Z,9.52
2022-12-28T19:49:20.646Z,9.70
2022-12-28T19:51:47.301Z,9.71
2022-12-28T19:54:14.001Z,9.61
2022-12-28T19:56:40.512Z,9.66
2022-12-28T19:59:07.424Z,9.55
2022-12-28T20:01:35.385Z,9.62
2022-12-28T20:04:05.765Z,9.63
2022-12-28T20:06:37.553Z,9.43
2022-12-28T20:09:04.021Z,9.40
2022-12-28T20:11:30.585Z,9.45
2022-12-28T20:13:59.563Z,9.58
2022-12-28T20:16:28.832Z,9.13
2022-12-28T20:18:56.203Z,9.39
2022-12-28T20:21:24.377Z,9.36
2022-12-28T20:23:52.043Z,8.97
2022-12-28T20:26:19.379Z,9.18
2022-12-28T20:28:46.092Z,9.31
2022-12-28T20:31:16.661Z,9.62
2022-12-28T20:33:43.749Z,8.86
2022-12-28T20:36:15.733Z,9.03
2022-12-28T20:38:42.680Z,9.21
2022-12-28T20:41:34.604Z,9.08
2022-12-28T20:44:04.454Z,8.89
2022-12-28T20:46:30.944Z,9.25
2022-12-28T20:48:59.065Z,9.19
2022-12-28T20:51:25.958Z,9.22
2022-12-28T20:53:52.467Z,9.12
2022-12-28T20:56:19.088Z,8.93
2022-12-28T20:58:45.750Z,9.13
2022-12-28T21:01:14.290Z,9.00
2022-12-28T21:03:40.978Z,9.30
2022-12-28T21:06:07.949Z,9.64
2022-12-28T21:08:35.126Z,9.22
2022-12-28T21:11:02.150Z,9.18
2022-12-28T21:13:28.917Z,9.35
2022-12-28T21:15:55.839Z,9.18
2022-12-28T21:18:22.519Z,9.16
2022-12-28T21:20:50.925Z,9.05
2022-12-28T21:23:18.608Z,9.21
2022-12-28T21:25:45.264Z,8.80
2022-12-28T21:28:11.740Z,9.47
2022-12-28T21:30:38.719Z,8.96
2022-12-28T21:33:05.394Z,9.13
2022-12-28T21:35:34.301Z,9.23
2022-12-28T21:38:01.340Z,9.07
2022-12-28T21:40:27.959Z,9.00
2022-12-28T21:42:54.415Z,9.10
2022-12-28T21:45:21.023Z,9.18
2022-12-28T21:47:47.501Z,9.43
2022-12-28T21:50:14.021Z,9.21
2022-12-28T21:52:40.480Z,9.34
2022-12-28T21:55:26.088Z,9.01
2022-12-28T21:57:53.679Z,9.13
2022-12-28T22:00:39.259Z,8.83
2022-12-28T22:03:24.467Z,9.51
2022-12-28T22:06:02.956Z,9.07
2022-12-28T22:08:49.024Z,9.02
2022-12-28T22:11:34.152Z,9.04
2022-12-28T22:14:00.964Z,9.14
2022-12-28T22:16:27.568Z,8.92
2022-12-28T22:19:02.064Z,9.11
2022-12-28T22:21:29.254Z,9.33
2022-12-28T22:23:55.713Z,9.36
2022-12-28T22:26:22.220Z,9.04
2022-12-28T22:28:48.747Z,9.33
2022-12-28T22:31:15.430Z,8.97
2022-12-28T22:33:42.969Z,9.33
2022-12-28T22:36:13.943Z,9.11
2022-12-28T22:38:40.596Z,9.49
2022-12-28T22:41:07.599Z,9.20
2022-12-28T22:43:34.128Z,9.10
2022-12-28T22:46:11.926Z,9.29
2022-12-28T22:48:38.770Z,9.59
2022-12-28T22:51:07.323Z,9.18
2022-12-28T22:53:34.511Z,9.21
2022-12-28T22:56:02.455Z,9.23
2022-12-28T22:58:29.657Z,9.63
2022-12-28T23:01:06.134Z,9.51
2022-12-28T23:03:32.757Z,9.29
2022-12-28T23:05:59.472Z,9.46
2022-12-28T23:08:25.926Z,9.45
2022-12-28T23:11:00.380Z,9.19
2022-12-28T23:13:29.133Z,9.15
2022-12-28T23:15:58.784Z,8.94
2022-12-28T23:18:43.958Z,9.23
2022-12-28T23:21:34.812Z,8.84
2022-12-28T23:24:21.399Z,9.44
2022-12-28T23:27:06.614Z,9.00
2022-12-28T23:29:33.635Z,9.46
2022-12-28T23:32:01.481Z,9.59
2022-12-28T23:34:28.148Z,9.11
2022-12-28T23:36:54.658Z,9.22
2022-12-28T23:39:22.858Z,9.45
2022-12-28T23:41:53.789Z,9.09
2022-12-28T23:44:23.809Z,9.24
2022-12-28T23:46:55.247Z,9.17
2022-12-28T23:49:24.910Z,9.06
2022-12-28T23:51:51.386Z,9.62
2022-12-28T23:54:19.457Z,9.55
2022-12-28T23:56:47.171Z,9.55
2022-12-28T23:59:13.686Z,9.57
